Time;durP1;ratioP1;P1;durP2;ratioP2;P2;SDS_P1;SDS_P2;PMS_P1;PMS_P2;Temp;Humidity;BMP_temperature;BMP_pressure;BME280_temperature;BME280_humidity;BME280_pressure;Samples;Min_cycle;Max_cycle;Signal;HPM_P1;HPM_P2
2021/07/23 00:00:10;;;;;;;11.15;2.30;;;;;;;26.42;55.73;100542.88;4991120;28;20042;-69
2021/07/23 00:02:37;;;;;;;13.45;2.60;;;;;;;26.45;55.81;100539.16;4991772;28;20035;-68
2021/07/23 00:05:05;;;;;;;9.77;2.95;;;;;;;26.46;56.00;100540.88;4991293;28;20042;-69
2021/07/23 00:07:32;;;;;;;10.20;2.70;;;;;;;26.43;55.80;100539.22;4991643;28;20042;-69
2021/07/23 00:09:59;;;;;;;11.45;2.70;;;;;;;26.40;55.83;100539.38;4991065;28;20039;-70
2021/07/23 00:12:28;;;;;;;15.35;3.20;;;;;;;26.38;56.31;100543.13;4991088;28;20046;-69
2021/07/23 00:14:56;;;;;;;12.27;2.28;;;;;;;26.36;56.11;100542.31;4991626;28;20039;-70
2021/07/23 00:17:23;;;;;;;7.32;2.03;;;;;;;26.36;56.26;100539.63;4990959;28;20042;-69
2021/07/23 00:19:51;;;;;;;14.45;3.50;;;;;;;26.34;56.48;100531.56;4973930;28;20039;-70
2021/07/23 00:22:18;;;;;;;12.65;2.30;;;;;;;26.33;56.15;100545.19;4990469;28;20049;-70
2021/07/23 00:24:45;;;;;;;9.45;2.15;;;;;;;26.31;56.19;100539.88;4991486;28;20062;-69
2021/07/23 00:27:13;;;;;;;9.77;2.75;;;;;;;26.27;56.44;100537.38;4990476;28;20051;-69
2021/07/23 00:29:41;;;;;;;15.18;2.83;;;;;;;26.26;56.41;100524.81;4990932;28;20046;-68
2021/07/23 00:32:09;;;;;;;10.98;2.40;;;;;;;26.27;56.29;100534.69;4990432;28;20125;-69
2021/07/23 00:34:36;;;;;;;14.52;3.50;;;;;;;26.23;56.25;100531.25;4991180;28;20064;-68
2021/07/23 00:37:04;;;;;;;9.30;2.97;;;;;;;26.23;56.34;100530.38;4991386;28;20049;-70
2021/07/23 00:39:31;;;;;;;10.95;3.03;;;;;;;26.27;56.53;100531.97;4991257;28;20042;-70
2021/07/23 00:41:59;;;;;;;9.88;2.30;;;;;;;26.24;56.57;100521.28;4990219;28;20049;-70
2021/07/23 00:44:26;;;;;;;8.93;3.42;;;;;;;26.22;56.57;100529.50;4991006;28;20045;-70
2021/07/23 00:46:56;;;;;;;7.43;2.30;;;;;;;26.19;56.88;100525.09;4990487;28;20046;-69
2021/07/23 00:49:24;;;;;;;10.05;2.92;;;;;;;26.18;56.73;100523.38;4990692;28;20038;-69
2021/07/23 00:51:52;;;;;;;9.77;2.40;;;;;;;26.15;56.84;100520.81;4990819;28;20046;-69
2021/07/23 00:54:20;;;;;;;12.00;2.83;;;;;;;26.13;57.27;100513.72;4990204;28;20046;-69
2021/07/23 00:56:48;;;;;;;11.43;2.53;;;;;;;26.16;57.18;100514.44;4990127;28;20046;-70
2021/07/23 00:59:16;;;;;;;6.80;2.90;;;;;;;26.18;57.33;100522.50;4990316;28;20046;-69
2021/07/23 01:01:44;;;;;;;10.13;2.53;;;;;;;26.16;57.27;100517.16;4989369;28;20042;-69
2021/07/23 01:04:14;;;;;;;11.27;3.25;;;;;;;26.16;57.00;100509.03;4990502;28;20427;-69
2021/07/23 01:06:42;;;;;;;15.15;2.88;;;;;;;26.17;56.98;100520.75;4990361;28;20043;-69
2021/07/23 01:09:09;;;;;;;11.32;2.95;;;;;;;26.12;56.82;100518.25;4990085;28;20050;-70
2021/07/23 01:11:39;;;;;;;9.90;2.58;;;;;;;26.13;57.08;100509.19;4989083;28;20053;-68
2021/07/23 01:14:06;;;;;;;12.18;2.72;;;;;;;26.11;57.07;100500.28;4991029;28;20448;-70
2021/07/23 01:16:34;;;;;;;11.90;2.60;;;;;;;26.10;56.74;100503.94;4972751;28;20042;-70
2021/07/23 01:19:02;;;;;;;10.40;2.85;;;;;;;26.04;57.22;100506.09;4990466;28;20504;-69
2021/07/23 01:21:32;;;;;;;9.43;3.22;;;;;;;26.02;57.33;100500.75;4989998;28;20046;-69
2021/07/23 01:24:01;;;;;;;8.35;2.75;;;;;;;26.03;57.19;100497.09;4982114;28;20050;-69
2021/07/23 01:26:29;;;;;;;8.38;2.58;;;;;;;26.03;57.33;100493.53;4989836;28;20045;-70
2021/07/23 01:28:56;;;;;;;12.52;2.53;;;;;;;26.00;57.07;100489.13;4989823;28;20049;-70
2021/07/23 01:31:24;;;;;;;12.50;2.60;;;;;;;26.01;57.16;100501.72;4989686;28;20488;-70
2021/07/23 01:33:51;;;;;;;8.40;3.53;;;;;;;26.01;57.34;100488.19;4990551;28;20463;-69
2021/07/23 01:36:18;;;;;;;11.25;2.75;;;;;;;25.99;57.11;100487.38;4990398;28;20515;-69
2021/07/23 01:38:48;;;;;;;13.85;3.25;;;;;;;26.00;57.09;100494.53;4990728;28;20046;-69
2021/07/23 01:41:18;;;;;;;7.55;2.70;;;;;;;25.96;57.32;100492.09;4989946;28;20039;-70
2021/07/23 01:43:45;;;;;;;8.23;2.53;;;;;;;25.98;57.11;100493.78;4956989;28;20046;-70
2021/07/23 01:46:13;;;;;;;15.98;3.17;;;;;;;25.96;57.28;100482.16;4972704;28;20043;-70
2021/07/23 01:48:40;;;;;;;8.85;2.83;;;;;;;25.94;57.39;100486.75;4990228;28;20050;-70
2021/07/23 01:51:08;;;;;;;8.73;2.83;;;;;;;25.95;57.06;100485.81;4989905;28;20050;-69
2021/07/23 01:53:36;;;;;;;8.38;2.50;;;;;;;25.95;57.05;100485.81;4973091;28;20041;-68
2021/07/23 01:56:03;;;;;;;9.25;2.47;;;;;;;25.91;57.08;100481.53;4990467;28;20053;-69
2021/07/23 01:58:34;;;;;;;11.93;2.80;;;;;;;25.92;57.02;100491.41;4989461;28;20069;-70
2021/07/23 02:01:01;;;;;;;12.10;2.67;;;;;;;25.91;57.01;100492.34;4989878;28;20046;-69
2021/07/23 02:03:29;;;;;;;11.30;2.78;;;;;;;25.92;57.09;100482.41;4987903;28;20054;-70
2021/07/23 02:05:56;;;;;;;10.52;3.03;;;;;;;25.93;57.07;100494.97;4981813;28;20493;-70
2021/07/23 02:08:23;;;;;;;13.63;3.45;;;;;;;25.94;57.36;100486.75;4987826;28;20054;-70
2021/07/23 02:10:50;;;;;;;9.77;2.55;;;;;;;25.94;57.35;100486.75;4989640;28;20039;-70
2021/07/23 02:13:18;;;;;;;11.27;2.40;;;;;;;25.90;57.43;100495.13;4989259;28;20046;-70
2021/07/23 02:15:49;;;;;;;10.65;3.08;;;;;;;25.93;57.04;100484.16;4982955;28;20076;-70
2021/07/23 02:18:17;;;;;;;12.73;3.58;;;;;;;25.92;57.11;100480.56;4989509;28;20070;-70
2021/07/23 02:20:45;;;;;;;11.38;2.80;;;;;;;25.93;56.81;100485.00;4965759;28;20035;-69
2021/07/23 02:23:12;;;;;;;10.13;2.88;;;;;;;25.92;57.14;100483.28;4978210;28;20051;-69
2021/07/23 02:25:39;;;;;;;11.43;2.80;;;;;;;25.90;56.85;100476.19;4975198;28;20500;-69
2021/07/23 02:28:07;;;;;;;8.73;2.45;;;;;;;25.87;57.15;100485.31;4973223;28;20043;-69
2021/07/23 02:30:34;;;;;;;6.07;2.72;;;;;;;25.86;56.91;100480.88;4974835;28;20050;-69
2021/07/23 02:33:04;;;;;;;11.25;2.78;;;;;;;25.88;57.08;100483.50;4953975;29;20047;-69
2021/07/23 02:35:31;;;;;;;6.72;2.30;;;;;;;25.87;57.02;100479.03;4990771;28;20042;-69
2021/07/23 02:37:58;;;;;;;8.75;2.90;;;;;;;25.86;57.05;100477.31;4993479;28;20373;-70
2021/07/23 02:40:26;;;;;;;7.85;2.67;;;;;;;25.86;57.16;100480.88;4983264;28;20496;-70
2021/07/23 02:42:53;;;;;;;14.75;3.38;;;;;;;25.85;57.43;100479.13;4973899;28;20047;-70
2021/07/23 02:45:21;;;;;;;9.80;2.78;;;;;;;25.84;57.50;100477.38;4974690;28;20067;-70
2021/07/23 02:47:49;;;;;;;11.38;3.10;;;;;;;25.84;57.52;100482.78;4973246;28;20054;-70
2021/07/23 02:50:19;;;;;;;11.63;2.92;;;;;;;25.82;57.44;100475.69;4991075;28;20046;-70
2021/07/23 02:52:46;;;;;;;10.55;2.92;;;;;;;25.79;57.79;100471.34;4992620;28;20496;-69
2021/07/23 02:55:14;;;;;;;10.57;2.60;;;;;;;25.83;57.25;100467.50;4973126;28;20042;-69
2021/07/23 02:57:41;;;;;;;8.05;3.00;;;;;;;25.81;57.47;100485.63;4981375;28;20046;-69
2021/07/23 03:00:10;;;;;;;12.52;2.97;;;;;;;25.85;57.42;100481.84;4992321;28;20042;-69
2021/07/23 03:02:37;;;;;;;8.80;2.72;;;;;;;25.87;57.50;100485.31;4992064;28;20057;-68
2021/07/23 03:05:05;;;;;;;12.57;3.20;;;;;;;25.82;57.07;100476.56;4992650;28;20042;-69
2021/07/23 03:07:34;;;;;;;9.82;3.05;;;;;;;25.79;57.05;100476.75;4993110;28;20125;-70
2021/07/23 03:10:01;;;;;;;9.38;2.75;;;;;;;25.74;56.64;100487.78;4992261;28;20052;-68
2021/07/23 03:12:28;;;;;;;11.23;3.63;;;;;;;25.71;56.27;100474.44;4992678;28;20475;-69
2021/07/23 03:14:56;;;;;;;9.77;2.55;;;;;;;25.65;56.40;100479.28;4992533;28;20055;-69
2021/07/23 03:17:23;;;;;;;10.35;2.65;;;;;;;25.63;56.22;100487.47;4992034;28;20060;-70
2021/07/23 03:19:51;;;;;;;10.95;2.55;;;;;;;25.65;56.32;100490.97;4991842;28;20073;-69
2021/07/23 03:22:18;;;;;;;9.70;2.78;;;;;;;25.65;56.34;100480.16;4991147;28;20438;-69
2021/07/23 03:24:47;;;;;;;10.07;2.97;;;;;;;25.67;56.44;100485.47;4992494;28;20562;-70
2021/07/23 03:27:14;;;;;;;11.52;3.17;;;;;;;25.69;56.58;100488.97;4974459;28;20041;-69
2021/07/23 03:29:42;;;;;;;13.35;2.78;;;;;;;25.72;56.47;100492.41;4991727;28;20038;-68
2021/07/23 03:32:09;;;;;;;10.82;2.90;;;;;;;25.81;56.85;100491.06;4992121;28;20050;-69
2021/07/23 03:34:36;;;;;;;11.93;2.95;;;;;;;25.84;57.01;100496.31;4991136;28;20045;-69
2021/07/23 03:37:04;;;;;;;10.23;3.20;;;;;;;25.89;57.16;100488.84;4991634;28;20043;-69
2021/07/23 03:39:31;;;;;;;12.05;3.08;;;;;;;25.97;57.03;100481.19;4991928;28;20412;-69
2021/07/23 03:42:00;;;;;;;7.57;2.70;;;;;;;26.05;57.07;100484.38;4991471;28;20053;-69
2021/07/23 03:44:28;;;;;;;8.35;2.25;;;;;;;26.13;56.46;100490.25;4992050;28;20050;-69
2021/07/23 03:46:55;;;;;;;8.90;2.55;;;;;;;26.20;55.61;100488.09;4992127;28;20712;-69
2021/07/23 03:49:23;;;;;;;13.52;2.40;;;;;;;26.31;55.40;100484.84;4991540;28;20418;-69
2021/07/23 03:51:50;;;;;;;7.22;2.70;;;;;;;26.42;54.98;100479.72;4991210;28;20046;-71
2021/07/23 03:54:18;;;;;;;8.05;2.65;;;;;;;26.53;54.34;100482.72;4991671;28;20035;-70
2021/07/23 03:56:45;;;;;;;11.27;3.13;;;;;;;26.63;54.07;100492.09;4991447;28;20515;-69
2021/07/23 03:59:14;;;;;;;12.63;2.60;;;;;;;26.73;54.03;100482.50;4991826;28;20038;-69
2021/07/23 04:01:43;;;;;;;7.53;2.03;;;;;;;26.82;52.90;100498.25;4991361;28;20058;-68
2021/07/23 04:04:10;;;;;;;10.45;2.25;;;;;;;26.92;52.74;100494.06;4974628;28;20034;-70
2021/07/23 04:06:38;;;;;;;7.85;2.05;;;;;;;27.04;52.08;100492.53;4991629;28;20034;-70
2021/07/23 04:09:05;;;;;;;9.48;2.50;;;;;;;27.18;52.19;100492.59;4991785;28;20038;-69
2021/07/23 04:11:37;;;;;;;8.75;2.10;;;;;;;27.28;51.47;100488.41;4991139;28;20038;-69
2021/07/23 04:14:04;;;;;;;11.55;2.63;;;;;;;27.45;51.45;100500.09;4991150;28;20065;-69
2021/07/23 04:16:33;;;;;;;11.35;2.63;;;;;;;27.62;51.21;100492.78;4990944;28;20039;-69
2021/07/23 04:19:00;;;;;;;10.02;2.22;;;;;;;27.74;51.21;100477.59;4990975;28;20054;-70
2021/07/23 04:21:27;;;;;;;10.90;3.13;;;;;;;27.81;50.51;100489.81;4990643;28;20058;-69
2021/07/23 04:23:54;;;;;;;8.50;2.38;;;;;;;27.85;49.79;100490.50;4991345;28;20404;-70
2021/07/23 04:26:22;;;;;;;11.90;2.80;;;;;;;27.82;49.90;100483.44;4990507;28;20046;-69
2021/07/23 04:28:49;;;;;;;9.85;2.20;;;;;;;27.85;49.49;100496.81;4991555;28;20045;-69
2021/07/23 04:31:16;;;;;;;13.13;2.25;;;;;;;28.00;49.84;100489.59;4990921;28;20042;-70
2021/07/23 04:33:45;;;;;;;9.88;2.20;;;;;;;28.24;49.25;100487.22;4990952;28;20065;-69
2021/07/23 04:36:13;;;;;;;11.65;2.22;;;;;;;28.43;49.31;100499.56;4991304;28;20400;-69
2021/07/23 04:38:40;;;;;;;12.38;2.25;;;;;;;28.57;48.59;100492.38;4973878;28;20046;-68
2021/07/23 04:41:07;;;;;;;10.85;2.88;;;;;;;28.63;48.25;100495.59;4989879;28;20508;-70
2021/07/23 04:43:38;;;;;;;10.20;2.22;;;;;;;28.84;47.83;100498.81;4974666;28;20042;-70
2021/07/23 04:46:05;;;;;;;11.93;3.13;;;;;;;28.99;47.56;100484.25;4985194;28;20039;-69
2021/07/23 04:48:33;;;;;;;9.77;2.53;;;;;;;29.18;47.47;100492.06;4970941;28;20129;-70
2021/07/23 04:51:04;;;;;;;8.75;1.90;;;;;;;29.39;47.23;100485.25;4988974;28;20432;-69
2021/07/23 04:53:31;;;;;;;11.25;2.70;;;;;;;29.63;47.13;100488.16;4990387;28;20042;-69
2021/07/23 04:56:00;;;;;;;11.70;2.47;;;;;;;29.86;46.22;100479.28;4990505;28;20047;-69
2021/07/23 04:58:28;;;;;;;12.90;2.60;;;;;;;30.03;45.90;100489.91;4990995;28;20038;-70
2021/07/23 05:00:55;;;;;;;12.40;2.50;;;;;;;30.17;45.17;100483.50;4989648;28;20423;-70
2021/07/23 05:03:26;;;;;;;12.32;2.15;;;;;;;30.18;44.62;100481.66;4991185;28;20504;-70
2021/07/23 05:05:56;;;;;;;8.15;2.03;;;;;;;30.31;44.43;100487.97;4990585;28;20492;-70
2021/07/23 05:08:27;;;;;;;10.65;2.05;;;;;;;30.44;43.67;100476.09;4989959;28;20049;-69
2021/07/23 05:10:54;;;;;;;17.85;2.50;;;;;;;30.46;43.32;100471.41;4990070;28;20058;-70
2021/07/23 05:13:22;;;;;;;8.27;2.17;;;;;;;30.45;42.83;100476.97;4990225;28;20117;-70
2021/07/23 05:15:50;;;;;;;6.55;2.25;;;;;;;30.56;42.42;100460.75;4989833;28;20397;-70
2021/07/23 05:18:18;;;;;;;10.02;2.33;;;;;;;30.28;42.75;100471.84;4973416;28;20046;-70
2021/07/23 05:20:46;;;;;;;12.93;2.00;;;;;;;30.44;42.93;100480.69;4988973;28;20038;-69
2021/07/23 05:23:13;;;;;;;11.20;2.05;;;;;;;31.02;42.42;100480.06;4988775;28;20049;-70
2021/07/23 05:25:43;;;;;;;10.80;1.85;;;;;;;31.24;41.74;100482.97;4989461;28;20045;-69
2021/07/23 05:28:10;;;;;;;8.60;2.20;;;;;;;31.21;41.71;100469.56;4990126;28;20034;-69
2021/07/23 05:30:37;;;;;;;12.55;2.30;;;;;;;31.13;41.41;100484.75;4990885;28;20046;-70
2021/07/23 05:33:05;;;;;;;19.77;2.38;;;;;;;31.11;41.02;100481.28;4989865;28;20069;-70
2021/07/23 05:35:32;;;;;;;11.25;2.92;;;;;;;31.38;40.92;100483.78;4990235;28;20448;-70
2021/07/23 05:37:59;;;;;;;6.43;2.00;;;;;;;31.81;40.32;100495.97;4990333;28;20054;-70
2021/07/23 05:40:27;;;;;;;6.93;1.85;;;;;;;32.05;40.03;100477.66;4989316;28;20041;-70
2021/07/23 05:42:56;;;;;;;10.13;2.03;;;;;;;32.03;39.43;100487.81;4987818;28;20050;-70
2021/07/23 05:45:23;;;;;;;11.93;3.00;;;;;;;31.70;39.96;100484.13;4990078;28;20042;-70
2021/07/23 05:47:50;;;;;;;7.28;1.80;;;;;;;32.06;39.72;100486.72;4989491;28;20050;-70
2021/07/23 05:50:18;;;;;;;8.93;2.08;;;;;;;32.42;39.51;100483.88;4988893;28;20512;-71
2021/07/23 05:52:45;;;;;;;10.13;2.60;;;;;;;32.70;38.52;100481.66;4989875;28;20039;-70
2021/07/23 05:55:12;;;;;;;7.15;2.00;;;;;;;32.54;38.55;100481.13;4990855;28;20042;-70
2021/07/23 05:57:40;;;;;;;9.20;2.15;;;;;;;32.80;38.52;100493.59;4989618;28;20499;-69
2021/07/23 06:00:11;;;;;;;5.78;1.83;;;;;;;33.07;37.94;100498.69;4994838;28;20039;-70
2021/07/23 06:02:38;;;;;;;7.18;1.95;;;;;;;33.06;37.37;100503.28;4993227;28;20042;-71
2021/07/23 06:05:07;;;;;;;11.20;2.00;;;;;;;33.22;36.69;100503.75;4976681;28;20042;-70
2021/07/23 06:07:34;;;;;;;11.20;2.10;;;;;;;33.29;36.51;100490.44;4993838;28;20046;-70
2021/07/23 06:10:01;;;;;;;10.63;2.45;;;;;;;33.36;36.62;100485.31;4993356;28;20046;-70
2021/07/23 06:12:29;;;;;;;10.32;1.98;;;;;;;33.48;36.35;100485.16;4993401;28;20415;-69
2021/07/23 06:14:56;;;;;;;9.70;2.08;;;;;;;33.57;35.90;100486.25;4993888;28;20134;-70
2021/07/23 06:17:27;;;;;;;9.63;2.50;;;;;;;33.73;36.12;100494.97;4992527;28;20053;-70
2021/07/23 06:19:55;;;;;;;9.75;2.53;;;;;;;33.93;36.14;100491.38;4993915;28;20077;-71
2021/07/23 06:22:22;;;;;;;9.13;2.10;;;;;;;33.83;36.17;100501.38;4993995;28;20122;-70
2021/07/23 06:24:49;;;;;;;9.73;2.33;;;;;;;33.90;36.03;100502.59;4992865;28;20056;-70
2021/07/23 06:27:19;;;;;;;10.25;1.83;;;;;;;33.61;36.26;100507.75;4993264;28;20050;-71
2021/07/23 06:29:48;;;;;;;8.02;1.73;;;;;;;33.57;35.87;100511.78;4991790;28;20047;-70
2021/07/23 06:32:15;;;;;;;10.77;2.30;;;;;;;33.82;35.93;100505.09;4993396;28;20043;-70
2021/07/23 06:34:45;;;;;;;10.50;2.13;;;;;;;33.89;35.76;100506.31;4992632;28;20046;-69
2021/07/23 06:37:12;;;;;;;8.82;1.88;;;;;;;33.86;35.46;100501.13;4987562;28;20046;-70
2021/07/23 06:39:39;;;;;;;7.80;2.08;;;;;;;33.26;36.24;100489.84;4984273;28;20045;-70
2021/07/23 06:42:08;;;;;;;8.57;1.85;;;;;;;32.88;37.00;100484.78;4991712;28;20042;-70
2021/07/23 06:44:37;;;;;;;10.07;2.15;;;;;;;32.82;37.97;100491.63;4991894;28;20042;-70
2021/07/23 06:47:05;;;;;;;12.95;2.63;;;;;;;33.34;36.77;100499.16;4992517;28;20412;-69
2021/07/23 06:49:32;;;;;;;7.70;2.10;;;;;;;33.70;36.43;100502.50;4991266;28;20041;-69
2021/07/23 06:52:01;;;;;;;8.77;1.92;;;;;;;33.86;36.32;100501.13;4992220;28;20046;-70
2021/07/23 06:54:29;;;;;;;6.10;2.13;;;;;;;33.92;35.86;100496.97;4987144;28;20416;-70
2021/07/23 06:56:56;;;;;;;9.57;2.17;;;;;;;33.73;36.16;100485.88;4989213;28;20047;-69
2021/07/23 06:59:24;;;;;;;13.70;2.40;;;;;;;33.69;35.85;100501.63;4974838;28;20640;-69
2021/07/23 07:01:51;;;;;;;13.07;2.63;;;;;;;33.84;36.00;100499.50;4990251;28;20544;-70
2021/07/23 07:04:19;;;;;;;6.80;1.80;;;;;;;33.70;35.76;100488.81;4992521;28;20045;-71
2021/07/23 07:06:46;;;;;;;9.95;2.30;;;;;;;33.55;35.79;100491.84;4996048;28;20041;-70
2021/07/23 07:09:15;;;;;;;11.25;2.30;;;;;;;33.77;35.77;100499.16;4973405;28;20488;-69
2021/07/23 07:11:42;;;;;;;14.88;2.53;;;;;;;33.99;35.78;100496.31;4990410;28;20379;-69
2021/07/23 07:14:09;;;;;;;9.20;2.22;;;;;;;33.96;36.38;100499.31;4992241;28;20042;-69
2021/07/23 07:16:37;;;;;;;10.13;2.50;;;;;;;34.16;36.54;100499.47;4992277;28;20054;-70
2021/07/23 07:19:04;;;;;;;12.75;2.30;;;;;;;34.51;35.64;100507.38;4992647;28;20047;-69
2021/07/23 07:21:31;;;;;;;11.93;2.10;;;;;;;34.03;35.65;100518.84;4991144;28;20396;-69
2021/07/23 07:24:00;;;;;;;10.68;2.10;;;;;;;34.04;35.64;100498.66;4996316;28;20053;-69
2021/07/23 07:26:29;;;;;;;15.57;2.30;;;;;;;34.13;35.46;100494.25;4991169;28;20055;-69
2021/07/23 07:28:57;;;;;;;8.52;2.28;;;;;;;34.26;35.70;100490.34;4991251;28;20133;-69
2021/07/23 07:31:25;;;;;;;10.95;2.72;;;;;;;34.52;35.45;100509.13;4991194;28;20050;-70
2021/07/23 07:33:52;;;;;;;14.30;2.95;;;;;;;34.56;35.02;100514.19;4991694;28;20053;-69
2021/07/23 07:36:19;;;;;;;10.07;2.40;;;;;;;34.21;35.24;100510.88;4990822;28;20141;-69
2021/07/23 07:38:47;;;;;;;9.35;1.58;;;;;;;34.41;34.97;100515.53;4992467;28;20041;-68
2021/07/23 07:41:17;;;;;;;15.45;2.72;;;;;;;34.51;35.04;100521.09;4999690;28;20038;-68
2021/07/23 07:43:48;;;;;;;9.52;2.30;;;;;;;34.66;35.19;100511.47;4980694;28;20552;-68
2021/07/23 07:46:16;;;;;;;9.35;1.95;;;;;;;34.79;34.34;100517.63;4987268;28;20484;-69
2021/07/23 07:48:43;;;;;;;5.88;2.35;;;;;;;34.85;33.71;100527.22;4984025;28;20035;-68
2021/07/23 07:51:10;;;;;;;8.35;1.98;;;;;;;34.96;33.27;100519.75;4987236;28;20058;-69
2021/07/23 07:53:37;;;;;;;8.77;1.92;;;;;;;34.94;32.68;100520.88;4990741;28;20052;-70
2021/07/23 07:56:07;;;;;;;15.80;3.42;;;;;;;34.96;32.96;100525.25;4984703;28;20062;-69
2021/07/23 07:58:34;;;;;;;10.38;2.65;;;;;;;35.01;32.99;100514.72;4987319;28;20443;-70
2021/07/23 08:01:05;;;;;;;8.98;2.10;;;;;;;35.19;32.88;100525.88;4989400;28;20046;-71
2021/07/23 08:03:33;;;;;;;9.60;1.98;;;;;;;35.47;32.90;100522.38;4982819;28;20042;-71
2021/07/23 08:06:04;;;;;;;7.43;2.25;;;;;;;35.60;32.61;100526.75;4990550;28;20042;-70
2021/07/23 08:08:31;;;;;;;9.32;2.08;;;;;;;35.63;32.65;100521.84;4990852;28;20049;-70
2021/07/23 08:10:58;;;;;;;8.50;2.05;;;;;;;35.71;32.24;100516.50;4988084;28;20053;-69
2021/07/23 08:13:27;;;;;;;9.35;2.10;;;;;;;35.56;32.40;100520.69;4988425;28;20057;-70
2021/07/23 08:15:54;;;;;;;10.40;2.20;;;;;;;35.55;32.63;100513.44;4990943;28;20057;-70
2021/07/23 08:18:24;;;;;;;9.82;1.90;;;;;;;35.62;32.27;100528.34;4990275;28;20047;-70
2021/07/23 08:20:51;;;;;;;7.03;1.67;;;;;;;35.54;32.58;100525.44;4990999;28;20057;-70
2021/07/23 08:23:20;;;;;;;7.00;2.17;;;;;;;35.64;32.71;100515.34;4990950;28;20522;-70
2021/07/23 08:25:47;;;;;;;8.45;2.60;;;;;;;35.44;32.70;100497.09;4991490;28;20046;-69
2021/07/23 08:28:16;;;;;;;9.35;2.53;;;;;;;35.41;32.67;100511.09;4990804;28;20446;-69
2021/07/23 08:30:44;;;;;;;12.73;2.42;;;;;;;35.51;32.66;100523.81;4991259;28;20043;-69
2021/07/23 08:33:12;;;;;;;8.30;2.65;;;;;;;35.60;32.49;100518.50;4990875;28;20038;-69
2021/07/23 08:35:41;;;;;;;12.07;2.30;;;;;;;35.68;32.57;100524.16;4991090;28;20057;-70
2021/07/23 08:38:09;;;;;;;10.07;2.75;;;;;;;35.74;32.51;100518.13;4990963;28;20101;-70
2021/07/23 08:40:36;;;;;;;8.95;2.08;;;;;;;35.78;31.98;100527.78;4991743;28;20412;-70
2021/07/23 08:43:04;;;;;;;10.27;2.45;;;;;;;35.54;32.48;100512.56;4991012;28;20488;-67
2021/07/23 08:45:32;;;;;;;11.00;2.42;;;;;;;35.55;32.46;100527.16;4988433;28;20053;-67
2021/07/23 08:48:01;;;;;;;10.63;2.75;;;;;;;35.73;32.42;100521.88;5000240;28;20385;-68
2021/07/23 08:50:28;;;;;;;6.05;2.20;;;;;;;35.86;32.22;100533.44;4994207;28;20061;-68
2021/07/23 08:52:57;;;;;;;16.48;2.50;;;;;;;35.93;31.90;100505.25;4995024;28;20045;-68
2021/07/23 08:55:27;;;;;;;7.75;1.95;;;;;;;35.79;32.12;100526.78;4997613;28;20042;-68
2021/07/23 08:57:54;;;;;;;8.85;2.38;;;;;;;35.80;31.93;100528.53;4994975;28;20113;-68
2021/07/23 09:00:23;;;;;;;9.07;2.33;;;;;;;35.76;32.17;100518.84;4986154;28;20038;-68
2021/07/23 09:02:58;;;;;;;9.65;2.05;;;;;;;35.78;31.92;100517.66;4986815;28;20039;-68
2021/07/23 09:05:28;;;;;;;7.65;2.17;;;;;;;35.66;32.33;100506.94;4989733;28;20042;-68
2021/07/23 09:07:59;;;;;;;8.05;2.50;;;;;;;35.89;32.00;100509.31;4990420;28;20415;-68
2021/07/23 09:10:29;;;;;;;10.80;2.35;;;;;;;35.91;31.75;100529.25;4990260;28;20370;-68
2021/07/23 09:13:00;;;;;;;7.13;1.77;;;;;;;35.90;31.84;100526.66;4989735;28;20042;-68
2021/07/23 09:15:30;;;;;;;7.10;2.08;;;;;;;35.88;31.56;100518.56;4988990;28;20042;-67
2021/07/23 09:17:57;;;;;;;17.75;3.15;;;;;;;36.00;31.50;100507.41;4988772;28;20038;-67
2021/07/23 09:20:29;;;;;;;11.73;2.97;;;;;;;35.87;31.81;100510.44;4988584;28;21186;-67
2021/07/23 09:23:00;;;;;;;10.10;2.67;;;;;;;35.71;32.14;100516.50;4989945;28;20448;-67
2021/07/23 09:25:46;;;;;;;11.32;2.53;;;;;;;35.75;32.31;100526.22;4988970;28;20061;-68
2021/07/23 09:28:22;;;;;;;8.63;2.30;;;;;;;35.81;32.17;100516.53;4989288;28;20038;-67
2021/07/23 09:30:49;;;;;;;15.00;3.33;;;;;;;35.72;32.05;100526.50;4988966;28;20061;-67
2021/07/23 09:33:28;;;;;;;12.07;2.60;;;;;;;35.52;32.35;100516.44;4991191;28;20042;-68
2021/07/23 09:35:57;;;;;;;11.40;2.35;;;;;;;35.52;32.59;100520.06;4993694;28;20042;-67
2021/07/23 09:38:32;;;;;;;10.48;2.10;;;;;;;35.55;32.49;100514.31;4994185;28;20400;-67
2021/07/23 09:40:59;;;;;;;9.77;2.47;;;;;;;35.30;32.68;100511.22;4993553;28;20050;-67
2021/07/23 09:43:31;;;;;;;13.25;3.10;;;;;;;35.14;32.84;100522.69;4976255;28;20050;-68
2021/07/23 09:46:23;;;;;;;11.73;2.33;;;;;;;35.23;32.91;100510.91;4976221;28;20065;-68
2021/07/23 09:48:52;;;;;;;11.63;2.42;;;;;;;35.32;32.64;100510.06;4993348;28;20101;-67
2021/07/23 09:51:21;;;;;;;11.30;2.10;;;;;;;35.21;32.42;100517.56;4992853;28;20030;-68
2021/07/23 09:53:50;;;;;;;7.93;2.58;;;;;;;35.36;32.30;100518.91;4993369;28;20039;-68
2021/07/23 09:56:18;;;;;;;10.50;2.35;;;;;;;35.46;31.89;100504.16;4993227;28;20047;-68
2021/07/23 09:58:50;;;;;;;14.52;2.60;;;;;;;35.45;31.99;100493.31;5006623;28;20388;-67
2021/07/23 10:01:22;;;;;;;12.80;2.53;;;;;;;35.32;32.08;100489.97;4998898;28;20403;-67
2021/07/23 10:03:51;;;;;;;12.35;2.40;;;;;;;35.17;32.35;100503.22;4991257;28;20050;-68
2021/07/23 10:06:24;;;;;;;11.10;2.20;;;;;;;35.01;32.68;100500.97;5013383;28;20403;-68
2021/07/23 10:08:57;;;;;;;10.80;2.70;;;;;;;34.93;32.56;100499.94;5003367;28;20469;-68
2021/07/23 10:11:26;;;;;;;8.88;2.17;;;;;;;34.85;32.23;100505.28;4991936;28;20117;-67
2021/07/23 10:13:56;;;;;;;11.27;2.28;;;;;;;34.82;32.03;100505.53;4997138;28;20516;-67
2021/07/23 10:16:25;;;;;;;9.77;2.83;;;;;;;34.72;32.12;100486.28;5006496;28;20053;-69
2021/07/23 10:18:53;;;;;;;16.20;2.78;;;;;;;34.66;32.22;100492.28;4995296;28;20046;-68
2021/07/23 10:21:21;;;;;;;13.60;2.72;;;;;;;34.57;32.57;100501.34;4998827;28;20306;-68
2021/07/23 10:23:49;;;;;;;14.40;2.83;;;;;;;34.64;32.88;100497.91;5002095;28;20142;-68
2021/07/23 10:26:19;;;;;;;7.97;2.40;;;;;;;34.51;32.56;100486.31;5008240;28;20038;-69
2021/07/23 10:28:57;;;;;;;9.23;2.50;;;;;;;34.47;32.42;100501.28;4993818;28;20066;-67
2021/07/23 10:31:46;;;;;;;9.43;2.30;;;;;;;34.48;31.93;100486.56;5005566;28;20038;-68
2021/07/23 10:34:31;;;;;;;10.70;2.85;;;;;;;34.48;31.58;100471.97;4982529;28;20058;-67
2021/07/23 10:36:59;;;;;;;15.73;2.90;;;;;;;34.23;31.82;100487.88;4993505;28;20510;-68
2021/07/23 10:39:26;;;;;;;9.20;2.63;;;;;;;34.16;32.19;100474.78;4994619;28;20038;-68
2021/07/23 10:42:31;;;;;;;9.68;2.40;;;;;;;34.09;32.65;100479.06;4976042;28;20042;-68
2021/07/23 10:45:00;;;;;;;10.98;2.53;;;;;;;34.05;32.80;100483.97;5005370;28;20096;-68
2021/07/23 10:47:38;;;;;;;10.55;2.42;;;;;;;34.21;33.61;100481.63;5002327;28;20423;-68
2021/07/23 10:50:08;;;;;;;8.18;2.00;;;;;;;34.09;33.79;100495.50;5003902;28;20416;-68
2021/07/23 10:52:36;;;;;;;10.63;2.63;;;;;;;34.22;33.59;100490.72;4992424;28;20038;-68
2021/07/23 10:55:20;;;;;;;9.82;2.50;;;;;;;34.32;33.36;100489.81;4993357;28;20057;-67
2021/07/23 10:58:33;;;;;;;10.67;3.17;;;;;;;34.48;32.77;100470.09;4991930;28;20129;-68
2021/07/23 11:01:13;;;;;;;8.75;2.40;;;;;;;34.62;32.50;100474.38;4973588;28;20277;-68
2021/07/23 11:04:01;;;;;;;7.93;2.33;;;;;;;34.54;32.70;100476.91;4985519;28;20050;-69
2021/07/23 11:06:43;;;;;;;11.15;2.60;;;;;;;34.49;33.35;100477.34;4991902;28;20571;-69
2021/07/23 11:09:14;;;;;;;12.10;3.05;;;;;;;34.66;33.40;100478.56;4989315;28;20038;-69
2021/07/23 11:11:42;;;;;;;13.80;3.08;;;;;;;34.73;32.50;100471.53;4993347;28;20042;-68
2021/07/23 11:14:17;;;;;;;9.52;2.35;;;;;;;34.75;32.22;100478.66;4991769;28;20114;-68
2021/07/23 11:16:47;;;;;;;11.27;2.50;;;;;;;34.85;32.01;100440.28;4992580;28;20044;-69
2021/07/23 11:19:19;;;;;;;7.82;2.15;;;;;;;34.64;32.51;100464.13;4992556;28;20118;-68
2021/07/23 11:21:46;;;;;;;8.75;2.85;;;;;;;34.79;32.51;100458.16;4992515;28;20149;-68
2021/07/23 11:24:15;;;;;;;9.88;2.55;;;;;;;34.91;32.89;100464.41;4975957;28;20039;-68
2021/07/23 11:26:50;;;;;;;8.25;2.25;;;;;;;34.91;32.53;100458.94;4992434;28;20053;-68
2021/07/23 11:29:31;;;;;;;11.65;2.90;;;;;;;34.85;32.60;100461.38;4991921;28;20082;-69